createdAt,value
2022-10-23T00:05:05.014Z,3.9577
2022-10-23T00:15:29.392Z,3.9577
2022-10-23T00:20:41.512Z,3.9528
2022-10-23T00:25:53.816Z,3.9577
2022-10-23T00:31:06.312Z,3.9528
2022-10-23T00:41:30.467Z,3.9528
2022-10-23T00:46:42.501Z,3.9528
2022-10-23T00:51:54.473Z,3.9528
2022-10-23T00:57:06.558Z,3.9528
2022-10-23T01:07:31.142Z,3.9528
2022-10-23T01:12:43.509Z,3.9528
2022-10-23T01:17:55.492Z,3.9528
2022-10-23T01:23:07.685Z,3.9528
2022-10-23T01:28:19.949Z,3.9528
2022-10-23T01:33:31.943Z,3.9528
2022-10-23T01:38:44.163Z,3.9479
2022-10-23T01:43:56.596Z,3.9479
2022-10-23T01:49:08.622Z,3.9479
2022-10-23T01:54:20.721Z,3.9479
2022-10-23T01:59:32.869Z,3.9479
2022-10-23T02:04:44.844Z,3.9479
2022-10-23T02:09:57.012Z,3.9479
2022-10-23T02:15:09.179Z,3.9479
2022-10-23T02:20:21.187Z,3.9479
2022-10-23T02:25:33.310Z,3.943
2022-10-23T02:30:45.579Z,3.9479
2022-10-23T02:35:57.503Z,3.943
2022-10-23T02:41:09.645Z,3.9479
2022-10-23T02:46:21.979Z,3.943
2022-10-23T02:51:33.805Z,3.943
2022-10-23T02:56:46.044Z,3.943
2022-10-23T03:01:59.011Z,3.943
2022-10-23T03:12:22.814Z,3.943
2022-10-23T03:17:34.978Z,3.943
2022-10-23T03:22:47.625Z,3.9382
2022-10-23T03:27:59.586Z,3.9382
2022-10-23T03:38:23.964Z,3.9382
2022-10-23T03:43:36.124Z,3.9382
2022-10-23T03:48:48.457Z,3.9479
2022-10-23T03:54:00.379Z,3.9382
2022-10-23T04:04:24.740Z,3.9382
2022-10-23T04:09:36.915Z,3.9382
2022-10-23T04:14:49.395Z,3.9382
2022-10-23T04:20:01.660Z,3.9382
2022-10-23T04:35:38.332Z,3.9333
2022-10-23T04:40:50.358Z,3.9333
2022-10-23T04:46:02.577Z,3.9333
2022-10-23T04:56:26.887Z,3.9333
2022-10-23T05:01:39.796Z,3.9333
2022-10-23T05:06:51.864Z,3.9333
2022-10-23T05:12:03.986Z,3.9333
2022-10-23T05:22:28.182Z,3.9333
2022-10-23T05:27:41.314Z,3.9284
2022-10-23T05:32:53.540Z,3.9284
2022-10-23T05:38:05.782Z,3.9284
2022-10-23T05:48:36.377Z,3.9284
2022-10-23T05:53:51.791Z,3.9284
2022-10-23T05:59:04.026Z,3.9284
2022-10-23T06:09:28.131Z,3.9284
2022-10-23T06:14:40.159Z,3.9284
2022-10-23T06:19:52.600Z,3.9235
2022-10-23T06:25:05.022Z,3.9235
2022-10-23T06:35:29.266Z,3.9235
2022-10-23T06:40:41.741Z,3.9235
2022-10-23T06:45:53.837Z,3.9235
2022-10-23T06:51:05.987Z,3.9235
2022-10-23T07:01:33.363Z,3.9235
2022-10-23T07:06:45.147Z,3.9235
2022-10-23T07:11:57.533Z,3.9235
2022-10-23T07:22:24.737Z,3.9235
2022-10-23T07:27:36.452Z,3.9235
2022-10-23T07:32:48.778Z,3.9235
2022-10-23T07:38:00.956Z,3.9235
2022-10-23T07:48:25.678Z,3.9235
2022-10-23T07:53:37.977Z,3.9235
2022-10-23T07:58:50.283Z,3.9235
2022-10-23T08:04:02.716Z,3.9333
2022-10-23T08:14:27.610Z,3.9235
2022-10-23T08:19:39.646Z,3.9235
2022-10-23T08:24:52.067Z,3.9235
2022-10-23T08:30:04.571Z,3.9235
2022-10-23T08:45:41.529Z,3.9284
2022-10-23T08:50:54.034Z,3.9235
2022-10-23T08:56:06.573Z,3.9235
2022-10-23T09:06:32.017Z,3.9284
2022-10-23T09:11:44.052Z,3.9333
2022-10-23T09:16:56.807Z,3.9284
2022-10-23T09:22:09.385Z,3.9284
2022-10-23T09:27:21.703Z,3.9333
2022-10-23T09:32:34.169Z,3.9333
2022-10-23T09:37:47.184Z,3.9284
2022-10-23T09:42:59.493Z,3.9284
2022-10-23T09:53:24.233Z,3.9284
2022-10-23T09:58:36.453Z,3.9284
2022-10-23T10:03:48.990Z,3.9333
2022-10-23T10:09:01.483Z,3.9333
2022-10-23T10:19:26.582Z,3.9284
2022-10-23T10:24:38.893Z,3.9333
2022-10-23T10:29:51.403Z,3.9333
2022-10-23T10:35:04.149Z,3.9333
2022-10-23T10:45:29.753Z,3.943
2022-10-23T10:50:42.268Z,3.943
2022-10-23T10:55:54.943Z,3.943
2022-10-23T11:01:09.992Z,3.9479
2022-10-23T11:06:22.269Z,3.943
2022-10-23T11:11:34.643Z,3.9528
2022-10-23T11:21:57.637Z,3.9479
2022-10-23T11:27:10.348Z,3.9479
2022-10-23T11:38:33.272Z,3.943
2022-10-23T11:43:54.244Z,3.943
2022-10-23T11:49:05.756Z,3.943
2022-10-23T11:59:37.743Z,3.9479
2022-10-23T12:04:49.427Z,3.943
2022-10-23T12:10:02.090Z,3.9479
2022-10-23T12:25:40.448Z,3.9479
2022-10-23T12:36:05.346Z,3.9528
2022-10-23T12:46:30.901Z,3.9528
2022-10-23T12:51:43.262Z,3.9626
2022-10-23T12:56:56.156Z,3.9626
2022-10-23T13:02:09.558Z,3.9626
2022-10-23T13:07:22.684Z,3.9674
2022-10-23T13:12:35.961Z,3.9674
2022-10-23T13:17:48.801Z,3.9723
2022-10-23T13:23:02.131Z,3.9674
2022-10-23T13:33:26.782Z,3.987
2022-10-23T13:38:40.061Z,3.987
2022-10-23T13:43:53.176Z,3.9918
2022-10-23T14:04:39.232Z,3.9674
2022-10-23T14:09:51.952Z,3.9821
2022-10-23T14:15:04.267Z,3.9821
2022-10-23T14:20:27.846Z,3.9674
2022-10-23T14:25:37.841Z,3.9674
2022-10-23T14:30:50.145Z,3.9674
2022-10-23T14:46:22.675Z,3.9674
2022-10-23T14:51:35.024Z,3.9674
2022-10-23T14:56:47.391Z,3.9674
2022-10-23T15:02:00.098Z,3.9674
2022-10-23T15:17:35.115Z,3.9674
2022-10-23T15:22:47.830Z,3.9723
2022-10-23T15:28:00.182Z,3.9626
2022-10-23T15:33:20.356Z,3.9626
2022-10-23T15:38:31.051Z,3.9626
2022-10-23T15:43:43.551Z,3.9626
2022-10-23T15:48:55.776Z,3.9674
2022-10-23T15:54:08.122Z,3.9626
2022-10-23T16:04:32.645Z,3.9626
2022-10-23T16:09:44.802Z,3.9577
2022-10-23T16:14:57.050Z,3.9577
2022-10-23T16:20:09.307Z,3.9577
2022-10-23T16:30:34.034Z,3.9577
2022-10-23T16:35:46.445Z,3.9577
2022-10-23T16:41:02.448Z,3.9577
2022-10-23T16:51:29.877Z,3.9528
2022-10-23T16:56:42.384Z,3.9528
2022-10-23T17:01:55.448Z,3.9528
2022-10-23T17:07:07.989Z,3.9528
2022-10-23T17:12:20.387Z,3.9528
2022-10-23T17:17:32.718Z,3.9528
2022-10-23T17:22:45.544Z,3.9577
2022-10-23T17:27:58.029Z,3.9528
2022-10-23T17:38:23.192Z,3.9479
2022-10-23T17:43:35.575Z,3.9528
2022-10-23T17:48:48.094Z,3.9479
2022-10-23T17:54:00.571Z,3.9479
2022-10-23T18:04:25.578Z,3.9479
2022-10-23T18:09:38.045Z,3.943
2022-10-23T18:14:50.294Z,3.9479
2022-10-23T18:20:03.909Z,3.943
2022-10-23T18:30:30.231Z,3.943
2022-10-23T18:35:42.383Z,3.9382
2022-10-23T18:40:54.901Z,3.943
2022-10-23T18:46:07.338Z,3.9382
2022-10-23T18:56:32.301Z,3.9382
2022-10-23T19:01:45.742Z,3.9382
2022-10-23T19:06:58.332Z,3.9382
2022-10-23T19:12:20.049Z,3.9382
2022-10-23T19:17:33.059Z,3.9382
2022-10-23T19:22:47.589Z,3.9382
2022-10-23T19:27:59.988Z,3.9382
2022-10-23T19:38:25.066Z,3.9382
2022-10-23T19:43:37.707Z,3.9333
2022-10-23T19:48:49.973Z,3.9333
2022-10-23T19:54:02.182Z,3.9333
2022-10-23T20:04:27.143Z,3.9333
2022-10-23T20:09:39.908Z,3.9333
2022-10-23T20:14:52.448Z,3.9333
2022-10-23T20:20:04.888Z,3.9333
2022-10-23T20:30:36.098Z,3.9333
2022-10-23T20:35:48.679Z,3.9333
2022-10-23T20:41:00.641Z,3.9284
2022-10-23T20:51:24.980Z,3.9284
2022-10-23T20:56:37.131Z,3.9284
2022-10-23T21:01:50.281Z,3.9284
2022-10-23T21:07:16.064Z,3.9284
2022-10-23T21:17:38.273Z,3.9235
2022-10-23T21:22:50.662Z,3.9235
2022-10-23T21:28:02.823Z,3.9235
2022-10-23T21:38:27.091Z,3.9235
2022-10-23T21:43:39.301Z,3.9235
2022-10-23T21:48:51.395Z,3.9138
2022-10-23T21:54:03.371Z,3.9138
2022-10-23T22:04:28.116Z,3.9138
2022-10-23T22:09:40.092Z,3.9138
2022-10-23T22:14:52.202Z,3.9138
2022-10-23T22:20:04.535Z,3.9138
2022-10-23T22:30:28.771Z,3.9138
2022-10-23T22:35:41.317Z,3.9138
2022-10-23T22:40:53.693Z,3.9089
2022-10-23T22:46:05.821Z,3.9138
2022-10-23T22:56:30.411Z,3.9089
2022-10-23T23:01:43.111Z,3.9089
2022-10-23T23:06:55.105Z,3.9089
2022-10-23T23:12:07.254Z,3.9089
2022-10-23T23:22:31.850Z,3.9089
2022-10-23T23:27:44.001Z,3.9089
2022-10-23T23:32:56.351Z,3.9089
2022-10-23T23:38:08.660Z,3.9089
2022-10-23T23:43:20.831Z,3.9089
2022-10-23T23:48:33.102Z,3.904
2022-10-23T23:53:45.365Z,3.904
2022-10-23T23:58:57.401Z,3.904
